createdAt,value
2022-09-03T00:01:38.276Z,54.42
2022-09-03T00:04:22.359Z,54.93
2022-09-03T00:07:01.986Z,54.29
2022-09-03T00:09:34.177Z,54.91
2022-09-03T00:12:33.274Z,54.37
2022-09-03T00:15:07.731Z,53.86
2022-09-03T00:18:09.204Z,54.27
2022-09-03T00:20:43.976Z,54.76
2022-09-03T00:23:18.397Z,54.05
2022-09-03T00:25:50.690Z,53.44
2022-09-03T00:28:25.876Z,53.31
2022-09-03T00:31:02.351Z,53.81
2022-09-03T00:33:32.996Z,54.22
2022-09-03T00:36:02.237Z,54.92
2022-09-03T00:38:29.977Z,55.15
2022-09-03T00:41:06.991Z,54.89
2022-09-03T00:43:46.241Z,55.31
2022-09-03T00:46:20.006Z,55.24
2022-09-03T00:49:24.969Z,56.04
2022-09-03T00:51:56.372Z,56.13
2022-09-03T00:54:35.915Z,56.30
2022-09-03T00:57:10.454Z,56.31
2022-09-03T00:59:49.277Z,56.11
2022-09-03T01:02:34.085Z,56.54
2022-09-03T01:05:15.512Z,56.33
2022-09-03T01:07:53.125Z,56.07
2022-09-03T01:10:28.373Z,56.19
2022-09-03T01:13:16.174Z,56.35
2022-09-03T01:16:02.544Z,55.40
2022-09-03T01:18:56.839Z,55.25
2022-09-03T01:21:36.031Z,55.15
2022-09-03T01:24:31.714Z,55.28
2022-09-03T01:27:10.954Z,54.98
2022-09-03T01:29:53.852Z,55.05
2022-09-03T01:32:29.127Z,55.15
2022-09-03T01:35:04.604Z,54.08
2022-09-03T01:38:06.387Z,55.11
2022-09-03T01:40:44.836Z,54.69
2022-09-03T01:43:15.160Z,54.71
2022-09-03T01:45:55.201Z,54.06
2022-09-03T01:48:30.805Z,54.04
2022-09-03T01:51:24.653Z,54.27
2022-09-03T01:54:28.739Z,54.51
2022-09-03T01:57:34.622Z,54.26
2022-09-03T02:00:13.200Z,54.72
2022-09-03T02:02:48.909Z,54.91
2022-09-03T02:05:17.970Z,54.60
2022-09-03T02:07:52.839Z,54.68
2022-09-03T02:10:23.989Z,55.14
2022-09-03T02:12:56.658Z,54.86
2022-09-03T02:15:28.048Z,55.72
2022-09-03T02:17:57.383Z,55.67
2022-09-03T02:20:27.503Z,55.71
2022-09-03T02:22:54.541Z,55.65
2022-09-03T02:25:23.241Z,56.20
2022-09-03T02:27:50.891Z,55.88
2022-09-03T02:30:18.580Z,56.46
2022-09-03T02:32:45.053Z,55.95
2022-09-03T02:35:12.781Z,56.22
2022-09-03T02:37:40.111Z,55.77
2022-09-03T02:40:10.197Z,55.49
2022-09-03T02:42:37.085Z,55.88
2022-09-03T02:45:06.860Z,55.54
2022-09-03T02:47:35.861Z,55.53
2022-09-03T02:50:02.285Z,56.11
2022-09-03T02:52:28.700Z,55.99
2022-09-03T02:54:55.113Z,56.67
2022-09-03T02:57:27.663Z,55.89
2022-09-03T02:59:54.819Z,56.61
2022-09-03T03:02:21.339Z,56.31
2022-09-03T03:04:47.913Z,56.18
2022-09-03T03:07:14.365Z,56.61
2022-09-03T03:09:40.749Z,57.02
2022-09-03T03:12:08.161Z,56.72
2022-09-03T03:14:34.583Z,56.66
2022-09-03T03:17:01.140Z,56.74
2022-09-03T03:19:27.617Z,57.62
2022-09-03T03:21:54.046Z,57.80
2022-09-03T03:24:20.445Z,57.83
2022-09-03T03:26:46.851Z,58.33
2022-09-03T03:29:17.235Z,58.30
2022-09-03T03:31:43.932Z,58.55
2022-09-03T03:34:10.330Z,59.45
2022-09-03T03:36:36.910Z,59.74
2022-09-03T03:39:03.911Z,59.54
2022-09-03T03:41:33.138Z,59.76
2022-09-03T03:44:04.877Z,60.31
2022-09-03T03:46:36.387Z,61.02
2022-09-03T03:49:03.012Z,60.33
2022-09-03T03:51:30.423Z,60.90
2022-09-03T03:54:01.028Z,60.64
2022-09-03T03:56:29.632Z,61.40
2022-09-03T03:58:56.210Z,61.54
2022-09-03T04:01:25.545Z,61.14
2022-09-03T04:03:54.724Z,61.70
2022-09-03T04:06:23.267Z,61.22
2022-09-03T04:08:50.314Z,60.79
2022-09-03T04:11:22.141Z,60.91
2022-09-03T04:13:50.077Z,60.77
2022-09-03T04:16:25.396Z,60.49
2022-09-03T04:18:54.391Z,60.85
2022-09-03T04:21:23.529Z,60.36
2022-09-03T04:23:51.151Z,60.23
2022-09-03T04:26:21.398Z,60.75
2022-09-03T04:28:48.376Z,61.55
2022-09-03T04:31:19.237Z,61.74
2022-09-03T04:33:46.384Z,62.39
2022-09-03T04:36:14.048Z,63.73
2022-09-03T04:38:42.670Z,63.14
2022-09-03T04:41:12.034Z,62.90
2022-09-03T04:43:38.693Z,62.19
2022-09-03T04:46:10.863Z,62.02
2022-09-03T04:48:43.932Z,62.04
2022-09-03T04:51:15.567Z,61.83
2022-09-03T04:53:44.035Z,62.05
2022-09-03T04:56:19.221Z,62.37
2022-09-03T04:58:46.790Z,62.24
2022-09-03T05:01:20.845Z,62.33
2022-09-03T05:03:48.307Z,63.63
2022-09-03T05:06:17.083Z,63.55
2022-09-03T05:08:48.187Z,63.75
2022-09-03T05:11:16.192Z,64.11
2022-09-03T05:13:43.109Z,66.66
2022-09-03T05:16:13.196Z,72.25
2022-09-03T05:18:39.856Z,74.53
2022-09-03T05:21:11.001Z,79.71
2022-09-03T05:23:40.163Z,80.33
2022-09-03T05:26:10.995Z,80.04
2022-09-03T05:28:39.533Z,83.93
2022-09-03T05:31:14.457Z,84.65
2022-09-03T05:33:46.172Z,86.00
2022-09-03T05:36:17.765Z,88.70
2022-09-03T05:38:44.649Z,87.89
2022-09-03T05:41:13.213Z,88.14
2022-09-03T05:43:40.213Z,87.93
2022-09-03T05:46:16.915Z,88.45
2022-09-03T05:48:43.393Z,86.17
2022-09-03T05:51:19.110Z,85.82
2022-09-03T05:53:47.940Z,90.18
2022-09-03T05:56:20.306Z,91.81
2022-09-03T05:58:49.470Z,90.63
2022-09-03T06:01:21.792Z,87.79
2022-09-03T06:03:56.678Z,90.68
2022-09-03T06:06:25.475Z,90.73
2022-09-03T06:08:53.066Z,90.94
2022-09-03T06:11:19.662Z,91.66
2022-09-03T06:13:47.427Z,88.24
2022-09-03T06:16:13.909Z,87.85
2022-09-03T06:18:40.413Z,90.82
2022-09-03T06:21:07.724Z,90.09
2022-09-03T06:23:36.383Z,92.16
2022-09-03T06:26:08.223Z,93.38
2022-09-03T06:28:36.393Z,93.33
2022-09-03T06:31:05.464Z,94.38
2022-09-03T06:33:34.632Z,97.71
2022-09-03T06:36:04.560Z,97.75
2022-09-03T06:38:35.888Z,99.83
2022-09-03T06:41:05.949Z,98.42
2022-09-03T06:43:35.670Z,98.06
2022-09-03T06:46:05.270Z,97.84
2022-09-03T06:48:34.039Z,97.12
2022-09-03T06:51:15.299Z,96.05
2022-09-03T06:53:44.670Z,97.23
2022-09-03T06:56:19.180Z,98.01
2022-09-03T06:58:47.386Z,98.73
2022-09-03T07:01:19.635Z,97.36
2022-09-03T07:03:48.488Z,97.67
2022-09-03T07:06:17.744Z,97.72
2022-09-03T07:08:45.748Z,96.24
2022-09-03T07:11:14.586Z,96.98
2022-09-03T07:13:47.697Z,95.01
2022-09-03T07:16:17.251Z,96.45
2022-09-03T07:18:44.596Z,95.29
2022-09-03T07:21:19.442Z,97.06
2022-09-03T07:23:46.848Z,96.95
2022-09-03T07:26:19.887Z,97.52
2022-09-03T07:28:46.893Z,96.77
2022-09-03T07:31:16.032Z,96.16
2022-09-03T07:33:42.906Z,99.43
2022-09-03T07:36:15.312Z,99.60
2022-09-03T07:38:44.927Z,100.00
2022-09-03T07:41:13.076Z,100.00
2022-09-03T07:43:48.277Z,100.00
2022-09-03T07:46:23.104Z,100.00
2022-09-03T07:48:52.260Z,100.00
2022-09-03T07:51:20.940Z,100.00
2022-09-03T07:53:48.735Z,100.00
2022-09-03T07:56:15.829Z,100.00
2022-09-03T07:58:42.457Z,100.00
2022-09-03T08:01:14.043Z,100.00
2022-09-03T08:03:48.165Z,100.00
2022-09-03T08:06:16.689Z,100.00
2022-09-03T08:08:45.534Z,100.00
2022-09-03T08:11:17.363Z,100.00
2022-09-03T08:13:54.789Z,100.00
2022-09-03T08:16:21.323Z,100.00
2022-09-03T08:18:50.276Z,100.00
2022-09-03T08:21:20.025Z,100.00
2022-09-03T08:23:48.701Z,100.00
2022-09-03T08:26:17.091Z,100.00
2022-09-03T08:28:44.648Z,100.00
2022-09-03T08:31:16.793Z,100.00
2022-09-03T08:33:49.032Z,100.00
2022-09-03T08:36:18.082Z,98.62
2022-09-03T08:38:46.296Z,98.50
2022-09-03T08:41:16.342Z,100.00
2022-09-03T08:43:48.648Z,100.00
2022-09-03T08:46:16.554Z,99.28
2022-09-03T08:48:42.983Z,96.23
2022-09-03T08:51:12.466Z,97.78
2022-09-03T08:53:48.407Z,97.47
2022-09-03T08:56:29.218Z,97.16
2022-09-03T08:58:56.247Z,96.56
2022-09-03T09:01:35.652Z,96.40
2022-09-03T09:04:09.111Z,97.58
2022-09-03T09:06:42.096Z,96.83
2022-09-03T09:09:38.027Z,98.08
2022-09-03T09:12:20.377Z,95.33
2022-09-03T09:14:56.345Z,96.84
2022-09-03T09:17:38.369Z,96.44
2022-09-03T09:20:16.595Z,97.18
2022-09-03T09:23:19.861Z,98.74
2022-09-03T09:25:50.070Z,99.87
2022-09-03T09:28:19.907Z,97.82
2022-09-03T09:30:49.112Z,99.93
2022-09-03T09:33:17.138Z,96.92
2022-09-03T09:35:44.585Z,96.79
2022-09-03T09:38:11.797Z,96.52
2022-09-03T09:40:45.234Z,98.59
2022-09-03T09:43:17.485Z,98.86
2022-09-03T09:45:46.200Z,98.66
2022-09-03T09:48:24.008Z,95.88
2022-09-03T09:50:50.823Z,96.06
2022-09-03T09:53:21.448Z,96.79
2022-09-03T09:55:50.967Z,95.02
2022-09-03T09:58:20.094Z,95.97
2022-09-03T10:01:21.979Z,96.97
2022-09-03T10:03:55.085Z,95.29
2022-09-03T10:06:45.779Z,96.44
2022-09-03T10:09:15.933Z,96.01
2022-09-03T10:11:57.897Z,97.70
2022-09-03T10:14:35.042Z,95.58
2022-09-03T10:17:11.197Z,94.84
2022-09-03T10:20:10.146Z,93.67
2022-09-03T10:22:56.237Z,92.12
2022-09-03T10:25:30.434Z,93.49
2022-09-03T10:28:00.670Z,93.90
2022-09-03T10:30:31.565Z,91.71
2022-09-03T10:33:15.740Z,92.02
2022-09-03T10:35:51.816Z,91.60
2022-09-03T10:38:37.920Z,91.84
2022-09-03T10:41:20.315Z,90.13
2022-09-03T10:44:01.986Z,91.88
2022-09-03T10:46:37.065Z,91.00
2022-09-03T10:49:49.536Z,91.22
2022-09-03T10:52:36.925Z,89.35
2022-09-03T10:55:23.121Z,88.82
2022-09-03T10:58:12.735Z,89.48
2022-09-03T11:00:46.963Z,88.38
2022-09-03T11:03:33.958Z,88.24
2022-09-03T11:06:13.417Z,89.43
2022-09-03T11:08:48.432Z,90.63
2022-09-03T11:11:26.576Z,91.13
2022-09-03T11:14:02.302Z,88.28
2022-09-03T11:16:33.066Z,90.42
2022-09-03T11:19:11.278Z,87.98
2022-09-03T11:21:41.868Z,87.00
2022-09-03T11:24:23.559Z,86.77
2022-09-03T11:27:02.402Z,87.62
2022-09-03T11:29:42.433Z,89.30
2022-09-03T11:32:24.175Z,89.22
2022-09-03T11:34:54.437Z,87.60
2022-09-03T11:37:30.362Z,85.62
2022-09-03T11:40:05.108Z,87.84
2022-09-03T11:42:36.824Z,88.05
2022-09-03T11:45:21.696Z,88.71
2022-09-03T11:47:49.415Z,89.98
2022-09-03T11:50:21.051Z,88.13
2022-09-03T11:52:51.924Z,88.71
2022-09-03T11:55:43.276Z,89.01
2022-09-03T11:58:25.148Z,89.08
2022-09-03T12:00:54.014Z,88.55
2022-09-03T12:03:28.451Z,89.25
2022-09-03T12:06:19.875Z,88.21
2022-09-03T12:09:08.177Z,87.44
2022-09-03T12:12:06.575Z,88.24
2022-09-03T12:14:36.019Z,87.70
2022-09-03T12:17:26.740Z,88.51
2022-09-03T12:19:58.497Z,88.07
2022-09-03T12:22:31.288Z,87.33
2022-09-03T12:25:08.892Z,86.10
2022-09-03T12:27:40.130Z,86.74
2022-09-03T12:30:16.764Z,87.46
2022-09-03T12:32:43.497Z,87.32
2022-09-03T12:38:08.457Z,82.38
2022-09-03T12:41:26.650Z,82.30
2022-09-03T12:43:38.450Z,83.74
2022-09-03T12:46:13.543Z,83.93
2022-09-03T12:49:29.954Z,83.97
2022-09-03T12:51:52.147Z,83.96
2022-09-03T12:54:21.963Z,83.32
2022-09-03T12:56:57.615Z,82.50
2022-09-03T12:59:27.377Z,83.60
2022-09-03T13:01:58.695Z,84.07
2022-09-03T13:04:32.444Z,85.67
2022-09-03T13:07:04.015Z,84.96
2022-09-03T13:09:33.921Z,84.38
2022-09-03T13:12:04.744Z,84.13
2022-09-03T13:14:43.835Z,82.45
2022-09-03T13:17:55.324Z,82.02
2022-09-03T13:20:33.902Z,82.18
2022-09-03T13:23:19.230Z,81.63
2022-09-03T13:25:48.937Z,81.04
2022-09-03T13:28:34.272Z,81.49
2022-09-03T13:31:08.998Z,80.93
2022-09-03T13:33:43.507Z,80.24
2022-09-03T13:36:17.837Z,77.87
2022-09-03T13:38:54.170Z,78.01
2022-09-03T13:41:39.019Z,77.71
2022-09-03T13:44:20.906Z,79.03
2022-09-03T13:47:01.470Z,78.97
2022-09-03T13:49:57.332Z,78.87
2022-09-03T13:52:46.676Z,79.92
2022-09-03T13:55:23.316Z,81.47
2022-09-03T13:58:01.045Z,81.87
2022-09-03T14:00:44.211Z,80.88
2022-09-03T14:03:30.952Z,81.34
2022-09-03T14:06:05.844Z,81.48
2022-09-03T14:08:53.362Z,82.50
2022-09-03T14:11:31.432Z,82.81
2022-09-03T14:14:06.608Z,82.82
2022-09-03T14:16:40.313Z,82.73
2022-09-03T14:19:37.685Z,83.03
2022-09-03T14:22:26.994Z,82.86
2022-09-03T14:24:57.885Z,83.32
2022-09-03T14:27:26.775Z,82.34
2022-09-03T14:30:15.175Z,82.03
2022-09-03T14:32:53.617Z,82.31
2022-09-03T14:35:35.286Z,82.85
2022-09-03T14:38:04.755Z,81.43
2022-09-03T14:40:50.022Z,82.80
2022-09-03T14:43:33.269Z,81.80
2022-09-03T14:46:05.053Z,82.13
2022-09-03T14:49:00.159Z,81.71
2022-09-03T14:51:45.154Z,84.29
2022-09-03T14:54:41.593Z,87.61
2022-09-03T14:57:36.249Z,89.28
2022-09-03T15:00:18.382Z,88.68
2022-09-03T15:03:05.211Z,90.73
2022-09-03T15:05:40.878Z,90.10
2022-09-03T15:08:28.670Z,88.36
2022-09-03T15:11:04.557Z,89.34
2022-09-03T15:13:42.833Z,89.31
2022-09-03T15:16:33.005Z,89.21
2022-09-03T15:19:09.787Z,90.14
2022-09-03T15:22:03.665Z,90.32
2022-09-03T15:24:54.011Z,90.17
2022-09-03T15:27:58.146Z,88.74
2022-09-03T15:30:35.719Z,89.99
2022-09-03T15:33:07.912Z,89.80
2022-09-03T15:35:55.674Z,93.22
2022-09-03T15:38:41.396Z,90.65
2022-09-03T15:41:31.157Z,93.61
2022-09-03T15:44:01.222Z,94.85
2022-09-03T15:46:37.609Z,95.53
2022-09-03T15:49:21.618Z,95.60
2022-09-03T15:52:03.470Z,97.55
2022-09-03T15:54:43.376Z,99.39
2022-09-03T15:57:20.086Z,98.77
2022-09-03T16:00:07.823Z,98.56
2022-09-03T16:02:42.920Z,100.00
2022-09-03T16:05:25.353Z,100.00
2022-09-03T16:07:56.211Z,100.00
2022-09-03T16:10:36.485Z,100.00
2022-09-03T16:13:14.748Z,100.00
2022-09-03T16:15:57.661Z,100.00
2022-09-03T16:19:10.832Z,100.00
2022-09-03T16:21:44.314Z,100.00
2022-09-03T16:24:42.915Z,100.00
2022-09-03T16:27:54.256Z,100.00
2022-09-03T16:30:46.791Z,100.00
2022-09-03T16:33:32.143Z,100.00
2022-09-03T16:36:43.731Z,100.00
2022-09-03T16:39:42.484Z,100.00
2022-09-03T16:42:53.998Z,100.00
2022-09-03T16:45:30.232Z,100.00
2022-09-03T16:48:20.514Z,100.00
2022-09-03T16:50:51.877Z,100.00
2022-09-03T16:53:45.825Z,100.00
2022-09-03T16:56:37.112Z,100.00
2022-09-03T16:59:25.162Z,100.00
2022-09-03T17:01:55.499Z,100.00
2022-09-03T17:04:42.323Z,100.00
2022-09-03T17:07:22.448Z,100.00
2022-09-03T17:10:06.786Z,100.00
2022-09-03T17:12:43.301Z,100.00
2022-09-03T17:15:25.873Z,100.00
2022-09-03T17:18:07.249Z,100.00
2022-09-03T17:20:33.593Z,100.00
2022-09-03T17:23:12.155Z,100.00
2022-09-03T17:25:54.179Z,100.00
2022-09-03T17:28:30.219Z,100.00
2022-09-03T17:31:06.691Z,100.00
2022-09-03T17:34:02.616Z,100.00
2022-09-03T17:36:31.621Z,100.00
2022-09-03T17:39:17.024Z,100.00
2022-09-03T17:41:49.807Z,100.00
2022-09-03T17:44:37.233Z,100.00
2022-09-03T17:47:24.810Z,100.00
2022-09-03T17:50:18.325Z,100.00
2022-09-03T17:52:49.492Z,100.00
2022-09-03T17:55:22.080Z,100.00
2022-09-03T17:57:54.252Z,100.00
2022-09-03T18:00:30.707Z,100.00
2022-09-03T18:03:45.139Z,100.00
2022-09-03T18:06:24.809Z,100.00
2022-09-03T18:09:00.215Z,100.00
2022-09-03T18:11:49.728Z,100.00
2022-09-03T18:15:11.852Z,100.00
2022-09-03T18:17:45.642Z,100.00
2022-09-03T18:20:33.151Z,100.00
2022-09-03T18:23:31.001Z,100.00
2022-09-03T18:26:24.875Z,100.00
2022-09-03T18:29:19.689Z,100.00
2022-09-03T18:32:04.255Z,100.00
2022-09-03T18:34:54.172Z,100.00
2022-09-03T18:37:44.926Z,100.00
2022-09-03T18:40:41.397Z,100.00
2022-09-03T18:43:29.799Z,100.00
2022-09-03T18:49:50.724Z,100.00
2022-09-03T18:52:53.765Z,100.00
2022-09-03T18:55:59.911Z,100.00
2022-09-03T18:59:20.795Z,100.00
2022-09-03T19:02:06.259Z,100.00
2022-09-03T19:04:57.486Z,100.00
2022-09-03T19:08:06.713Z,100.00
2022-09-03T19:11:14.027Z,100.00
2022-09-03T19:13:59.759Z,100.00
2022-09-03T19:16:59.973Z,100.00
2022-09-03T19:20:20.763Z,100.00
2022-09-03T19:23:05.517Z,100.00
2022-09-03T19:25:50.358Z,100.00
2022-09-03T19:28:41.202Z,100.00
2022-09-03T19:32:01.727Z,100.00
2022-09-03T19:35:24.393Z,100.00
2022-09-03T19:38:30.458Z,100.00
2022-09-03T19:41:23.637Z,100.00
2022-09-03T19:44:37.701Z,100.00
2022-09-03T19:47:26.080Z,100.00
2022-09-03T19:50:16.933Z,100.00
2022-09-03T19:53:41.870Z,100.00
2022-09-03T19:56:37.717Z,100.00
2022-09-03T19:59:29.235Z,100.00
2022-09-03T20:02:14.344Z,100.00
2022-09-03T20:05:11.978Z,100.00
2022-09-03T20:07:57.528Z,100.00
2022-09-03T20:10:25.434Z,100.00
2022-09-03T20:13:15.133Z,100.00
2022-09-03T20:15:59.941Z,100.00
2022-09-03T20:18:52.896Z,100.00
2022-09-03T20:21:48.464Z,100.00
2022-09-03T20:24:31.316Z,100.00
2022-09-03T20:27:12.640Z,100.00
2022-09-03T20:30:16.651Z,100.00
2022-09-03T20:32:57.935Z,100.00
2022-09-03T20:35:37.788Z,100.00
2022-09-03T20:38:43.082Z,100.00
2022-09-03T20:41:24.439Z,100.00
2022-09-03T20:44:12.146Z,100.00
2022-09-03T20:47:14.732Z,100.00
2022-09-03T20:49:57.174Z,100.00
2022-09-03T20:52:46.721Z,100.00
2022-09-03T20:55:21.438Z,100.00
2022-09-03T20:58:08.049Z,100.00
2022-09-03T21:01:14.080Z,100.00
2022-09-03T21:03:44.508Z,100.00
2022-09-03T21:06:29.490Z,100.00
2022-09-03T21:09:14.278Z,100.00
2022-09-03T21:12:08.033Z,100.00
2022-09-03T21:14:58.576Z,100.00
2022-09-03T21:17:43.903Z,100.00
2022-09-03T21:20:24.698Z,100.00
2022-09-03T21:23:09.530Z,100.00
2022-09-03T21:25:54.190Z,100.00
2022-09-03T21:28:41.445Z,100.00
2022-09-03T21:31:17.109Z,100.00
2022-09-03T21:33:50.017Z,100.00
2022-09-03T21:36:25.513Z,100.00
2022-09-03T21:38:59.653Z,100.00
2022-09-03T21:41:42.909Z,100.00
2022-09-03T21:44:21.743Z,100.00
2022-09-03T21:46:58.728Z,100.00
2022-09-03T21:49:43.145Z,100.00
2022-09-03T21:52:17.145Z,100.00
2022-09-03T21:54:43.548Z,100.00
2022-09-03T21:57:28.844Z,100.00
2022-09-03T22:00:17.728Z,100.00
2022-09-03T22:02:46.135Z,100.00
2022-09-03T22:05:14.039Z,100.00
2022-09-03T22:08:00.750Z,100.00
2022-09-03T22:11:06.112Z,100.00
2022-09-03T22:13:51.055Z,100.00
2022-09-03T22:16:25.886Z,100.00
2022-09-03T22:18:54.510Z,100.00
2022-09-03T22:21:57.153Z,100.00
2022-09-03T22:24:33.287Z,100.00
2022-09-03T22:27:18.264Z,100.00
2022-09-03T22:30:07.572Z,100.00
2022-09-03T22:32:40.467Z,100.00
2022-09-03T22:35:28.909Z,100.00
2022-09-03T22:38:23.390Z,100.00
2022-09-03T22:41:05.909Z,100.00
2022-09-03T22:44:01.517Z,100.00
2022-09-03T22:46:39.757Z,100.00
2022-09-03T22:49:09.059Z,100.00
2022-09-03T22:52:08.823Z,100.00
2022-09-03T22:54:53.991Z,100.00
2022-09-03T22:57:24.003Z,100.00
2022-09-03T23:00:10.963Z,100.00
2022-09-03T23:02:38.376Z,100.00
2022-09-03T23:05:24.673Z,100.00
2022-09-03T23:08:09.749Z,100.00
2022-09-03T23:10:54.112Z,100.00
2022-09-03T23:13:32.873Z,100.00
2022-09-03T23:16:13.091Z,100.00
2022-09-03T23:18:44.415Z,100.00
2022-09-03T23:21:22.066Z,100.00
2022-09-03T23:24:03.600Z,100.00
2022-09-03T23:26:34.816Z,100.00
2022-09-03T23:29:13.405Z,100.00
2022-09-03T23:31:39.855Z,100.00
2022-09-03T23:34:09.030Z,100.00
2022-09-03T23:37:05.784Z,100.00
2022-09-03T23:39:49.873Z,100.00
2022-09-03T23:42:25.268Z,100.00
2022-09-03T23:45:08.532Z,100.00
2022-09-03T23:48:05.575Z,100.00
2022-09-03T23:50:44.637Z,100.00
2022-09-03T23:53:32.789Z,100.00
2022-09-03T23:56:30.510Z,100.00
2022-09-03T23:59:12.420Z,100.00
